createdAt,value
2018-09-24T00:01:20.372Z,5.40
2018-09-24T00:03:47.764Z,5.10
2018-09-24T00:06:15.152Z,4.60
2018-09-24T00:08:42.624Z,4.70
2018-09-24T00:11:10.084Z,4.20
2018-09-24T00:13:37.483Z,4.60
2018-09-24T00:16:04.901Z,5.00
2018-09-24T00:18:32.476Z,4.90
2018-09-24T00:20:59.955Z,4.93
2018-09-24T00:23:27.510Z,4.23
2018-09-24T00:25:55.034Z,4.80
2018-09-24T00:28:22.649Z,6.37
2018-09-24T00:30:50.110Z,5.03
2018-09-24T00:33:17.564Z,5.73
2018-09-24T00:35:45.048Z,4.53
2018-09-24T00:38:12.614Z,4.83
2018-09-24T00:40:40.140Z,5.70
2018-09-24T00:43:07.752Z,5.00
2018-09-24T00:45:35.234Z,5.37
2018-09-24T00:48:02.679Z,4.83
2018-09-24T00:50:30.471Z,5.20
2018-09-24T00:52:57.964Z,4.40
2018-09-24T00:55:25.518Z,6.10
2018-09-24T00:57:52.985Z,5.03
2018-09-24T01:00:20.411Z,5.00
2018-09-24T01:02:47.992Z,4.73
2018-09-24T01:05:15.417Z,6.47
2018-09-24T01:07:42.819Z,6.00
2018-09-24T01:10:10.342Z,6.80
2018-09-24T01:12:37.892Z,5.27
2018-09-24T01:15:05.847Z,3.83
2018-09-24T01:17:33.341Z,4.60
2018-09-24T01:20:00.894Z,5.00
2018-09-24T01:22:28.434Z,4.63
2018-09-24T01:24:55.973Z,6.93
2018-09-24T01:27:23.503Z,4.83
2018-09-24T01:29:51.089Z,5.13
2018-09-24T01:32:18.599Z,4.73
2018-09-24T01:34:46.108Z,9.57
2018-09-24T01:37:13.590Z,5.83
2018-09-24T01:39:41.070Z,5.17
2018-09-24T01:42:08.559Z,6.17
2018-09-24T01:44:35.996Z,7.37
2018-09-24T01:47:03.435Z,5.03
2018-09-24T01:49:30.941Z,6.90
2018-09-24T01:51:58.528Z,7.73
2018-09-24T01:54:27.893Z,6.00
2018-09-24T01:56:55.416Z,6.50
2018-09-24T01:59:22.880Z,6.30
2018-09-24T02:01:50.432Z,7.03
2018-09-24T02:04:17.944Z,5.20
2018-09-24T02:06:45.456Z,6.07
2018-09-24T02:09:13.000Z,4.73
2018-09-24T02:11:40.520Z,5.50
2018-09-24T02:14:08.023Z,5.90
2018-09-24T02:16:35.425Z,6.60
2018-09-24T02:19:02.908Z,5.80
2018-09-24T02:21:30.401Z,5.30
2018-09-24T02:24:02.538Z,5.20
2018-09-24T02:26:30.065Z,5.57
2018-09-24T02:28:57.546Z,6.50
2018-09-24T02:31:25.030Z,6.03
2018-09-24T02:33:52.533Z,5.60
2018-09-24T02:36:20.105Z,6.63
2018-09-24T02:38:47.613Z,5.90
2018-09-24T02:41:14.962Z,6.90
2018-09-24T02:43:42.567Z,6.97
2018-09-24T02:46:09.973Z,8.27
2018-09-24T02:48:37.472Z,6.93
2018-09-24T02:51:05.048Z,7.17
2018-09-24T02:53:37.409Z,6.50
2018-09-24T02:56:05.413Z,8.03
2018-09-24T02:58:32.892Z,8.33
2018-09-24T03:01:00.474Z,6.60
2018-09-24T03:03:27.991Z,7.23
2018-09-24T03:05:55.589Z,7.07
2018-09-24T03:08:23.049Z,9.10
2018-09-24T03:10:50.569Z,6.60
2018-09-24T03:13:18.054Z,7.77
2018-09-24T03:15:45.455Z,9.00
2018-09-24T03:18:12.851Z,97.73
2018-09-24T03:20:41.447Z,11.00
2018-09-24T03:23:09.183Z,28.73
2018-09-24T03:25:37.155Z,31.47
2018-09-24T03:28:04.780Z,70.53
2018-09-24T03:30:33.411Z,78.67
2018-09-24T03:33:01.074Z,95.27
2018-09-24T03:35:28.609Z,126.77
2018-09-24T03:37:56.036Z,33.63
2018-09-24T03:40:23.563Z,22.20
2018-09-24T03:42:51.077Z,10.47
2018-09-24T03:45:18.499Z,8.77
2018-09-24T03:47:45.845Z,10.40
2018-09-24T03:50:13.684Z,12.20
2018-09-24T03:52:41.260Z,41.73
2018-09-24T03:55:08.823Z,52.47
2018-09-24T03:57:36.228Z,157.63
2018-09-24T04:00:03.697Z,157.33
2018-09-24T04:02:31.151Z,194.40
2018-09-24T04:05:04.178Z,149.40
2018-09-24T04:07:37.377Z,108.63
2018-09-24T04:10:11.063Z,7.93
2018-09-24T04:12:44.054Z,12.73
2018-09-24T04:15:17.418Z,20.23
2018-09-24T04:17:50.531Z,15.70
2018-09-24T04:20:23.695Z,20.00
2018-09-24T04:22:56.810Z,12.33
2018-09-24T04:25:29.776Z,19.47
2018-09-24T04:28:02.881Z,10.27
2018-09-24T04:30:36.012Z,22.60
2018-09-24T04:33:09.204Z,18.37
2018-09-24T04:35:42.323Z,16.27
2018-09-24T04:38:15.490Z,6.40
2018-09-24T04:40:48.508Z,9.47
2018-09-24T04:43:21.632Z,46.80
2018-09-24T04:45:54.620Z,57.33
2018-09-24T04:48:27.677Z,15.77
2018-09-24T04:51:00.889Z,6.93
2018-09-24T04:53:33.933Z,6.20
2018-09-24T04:56:07.268Z,6.30
2018-09-24T04:58:40.347Z,8.50
2018-09-24T05:01:13.777Z,14.10
2018-09-24T05:03:46.907Z,9.80
2018-09-24T05:06:20.146Z,8.00
2018-09-24T05:08:53.381Z,7.57
2018-09-24T05:11:26.581Z,5.73
2018-09-24T05:13:59.664Z,6.07
2018-09-24T05:16:32.893Z,6.30
2018-09-24T05:19:06.043Z,6.13
2018-09-24T05:21:39.330Z,6.40
2018-09-24T05:24:12.540Z,6.53
2018-09-24T05:26:45.619Z,7.43
2018-09-24T05:29:18.552Z,7.07
2018-09-24T05:31:51.830Z,5.87
2018-09-24T05:34:25.027Z,6.40
2018-09-24T05:36:58.190Z,6.60
2018-09-24T05:39:31.356Z,4.80
2018-09-24T05:42:04.479Z,5.30
2018-09-24T05:44:37.674Z,6.70
2018-09-24T05:47:10.860Z,5.27
2018-09-24T05:49:44.051Z,4.53
2018-09-24T05:52:17.312Z,5.37
2018-09-24T05:54:50.512Z,5.90
2018-09-24T05:57:23.720Z,5.87
2018-09-24T05:59:56.892Z,6.10
2018-09-24T06:02:30.105Z,5.00
2018-09-24T06:05:03.291Z,5.70
2018-09-24T06:07:36.580Z,5.20
2018-09-24T06:10:10.056Z,6.83
2018-09-24T06:12:43.208Z,5.77
2018-09-24T06:15:16.293Z,5.20
2018-09-24T06:17:49.478Z,5.30
2018-09-24T06:20:22.641Z,4.10
2018-09-24T06:22:55.748Z,4.30
2018-09-24T06:25:28.877Z,5.87
2018-09-24T06:28:02.183Z,4.87
2018-09-24T06:30:35.463Z,5.00
2018-09-24T06:33:08.716Z,3.97
2018-09-24T06:35:41.892Z,5.00
2018-09-24T06:38:15.059Z,6.03
2018-09-24T06:40:48.240Z,6.23
2018-09-24T06:43:21.315Z,4.43
2018-09-24T06:45:54.473Z,5.47
2018-09-24T06:48:27.714Z,6.00
2018-09-24T06:51:00.847Z,5.37
2018-09-24T06:53:33.997Z,4.90
2018-09-24T06:56:07.286Z,5.63
2018-09-24T06:58:40.289Z,5.27
2018-09-24T07:01:13.675Z,5.10
2018-09-24T07:03:46.840Z,4.50
2018-09-24T07:06:20.175Z,5.10
2018-09-24T07:08:53.333Z,4.60
2018-09-24T07:11:26.837Z,4.40
2018-09-24T07:13:59.998Z,3.80
2018-09-24T07:16:33.288Z,4.00
2018-09-24T07:19:06.393Z,3.10
2018-09-24T07:21:39.645Z,3.30
2018-09-24T07:24:12.785Z,2.97
2018-09-24T07:26:45.968Z,4.20
2018-09-24T07:29:19.145Z,3.13
2018-09-24T07:31:52.480Z,3.70
2018-09-24T07:34:25.628Z,3.63
2018-09-24T07:37:05.841Z,2.73
2018-09-24T07:39:39.057Z,2.47
2018-09-24T07:42:12.217Z,2.30
2018-09-24T07:44:45.447Z,2.63
2018-09-24T07:47:18.604Z,3.17
2018-09-24T07:49:51.751Z,3.47
2018-09-24T07:52:24.851Z,2.93
2018-09-24T07:54:58.163Z,2.53
2018-09-24T07:57:31.332Z,2.43
2018-09-24T08:00:04.547Z,2.00
2018-09-24T08:02:37.746Z,2.37
2018-09-24T08:05:10.913Z,2.20
2018-09-24T08:07:44.251Z,2.53
2018-09-24T08:10:17.401Z,2.90
2018-09-24T08:12:51.760Z,2.60
2018-09-24T08:15:24.812Z,3.10
2018-09-24T08:17:57.946Z,2.10
2018-09-24T08:20:31.110Z,3.30
2018-09-24T08:23:04.312Z,3.07
2018-09-24T08:25:37.496Z,3.07
2018-09-24T08:28:10.940Z,3.97
2018-09-24T08:30:44.112Z,1.80
2018-09-24T08:33:17.240Z,2.37
2018-09-24T08:35:50.425Z,4.50
2018-09-24T08:38:23.569Z,6.50
2018-09-24T08:40:56.595Z,10.30
2018-09-24T08:43:29.907Z,3.30
2018-09-24T08:46:02.970Z,7.30
2018-09-24T08:48:36.161Z,3.63
2018-09-24T08:51:09.423Z,3.20
2018-09-24T08:53:42.736Z,1.87
2018-09-24T08:56:15.941Z,1.70
2018-09-24T08:58:49.172Z,2.27
2018-09-24T09:01:23.466Z,3.03
2018-09-24T09:03:56.577Z,1.57
2018-09-24T09:06:29.829Z,2.47
2018-09-24T09:09:02.983Z,3.03
2018-09-24T09:11:36.208Z,2.30
2018-09-24T09:14:09.492Z,2.57
2018-09-24T09:16:42.729Z,2.23
2018-09-24T09:19:15.862Z,1.83
2018-09-24T09:21:49.403Z,1.47
2018-09-24T09:24:22.777Z,1.73
2018-09-24T09:26:55.883Z,2.10
2018-09-24T09:29:28.868Z,1.80
2018-09-24T09:32:02.041Z,2.00
2018-09-24T09:34:35.201Z,2.50
2018-09-24T09:37:08.415Z,1.63
2018-09-24T09:39:41.641Z,2.00
2018-09-24T09:42:14.779Z,2.03
2018-09-24T09:44:47.979Z,1.67
2018-09-24T09:47:21.176Z,1.73
2018-09-24T09:49:55.360Z,1.90
2018-09-24T09:52:28.584Z,2.07
2018-09-24T09:55:01.820Z,2.33
2018-09-24T09:57:35.205Z,1.77
2018-09-24T10:00:09.203Z,2.13
2018-09-24T10:02:43.125Z,1.07
2018-09-24T10:05:16.282Z,1.47
2018-09-24T10:07:51.543Z,2.27
2018-09-24T10:10:25.089Z,1.30
2018-09-24T10:12:58.190Z,1.50
2018-09-24T10:15:31.548Z,1.83
2018-09-24T10:18:04.777Z,1.60
2018-09-24T10:20:37.817Z,1.63
2018-09-24T10:23:11.091Z,1.40
2018-09-24T10:25:44.527Z,1.63
2018-09-24T10:28:18.890Z,1.77
2018-09-24T10:30:52.399Z,1.67
2018-09-24T10:33:25.641Z,1.67
2018-09-24T10:35:59.165Z,2.13
2018-09-24T10:38:32.543Z,1.60
2018-09-24T10:41:06.113Z,1.27
2018-09-24T10:43:39.366Z,1.90
2018-09-24T10:46:13.115Z,1.57
2018-09-24T10:48:46.272Z,1.97
2018-09-24T10:51:19.520Z,2.70
2018-09-24T10:53:52.793Z,1.70
2018-09-24T10:56:25.949Z,1.70
2018-09-24T10:58:59.561Z,1.63
2018-09-24T11:01:32.785Z,1.40
2018-09-24T11:04:06.052Z,1.77
2018-09-24T11:06:39.180Z,1.70
2018-09-24T11:09:13.417Z,1.83
2018-09-24T11:11:47.589Z,1.40
2018-09-24T11:14:21.102Z,1.50
2018-09-24T11:16:54.395Z,1.30
2018-09-24T11:19:27.534Z,1.13
2018-09-24T11:22:00.895Z,2.00
2018-09-24T11:24:33.972Z,2.40
2018-09-24T11:27:07.481Z,1.80
2018-09-24T11:29:40.739Z,1.50
2018-09-24T11:32:14.151Z,1.53
2018-09-24T11:34:47.516Z,1.70
2018-09-24T11:37:20.733Z,1.90
2018-09-24T11:39:53.813Z,1.17
2018-09-24T11:42:26.909Z,1.40
2018-09-24T11:45:00.163Z,2.07
2018-09-24T11:47:33.424Z,1.40
2018-09-24T11:50:06.549Z,1.53
2018-09-24T11:52:39.783Z,1.30
2018-09-24T11:55:12.997Z,0.83
2018-09-24T11:57:46.104Z,1.70
2018-09-24T12:00:19.604Z,1.30
2018-09-24T12:02:54.629Z,1.80
2018-09-24T12:05:27.922Z,1.10
2018-09-24T12:08:01.222Z,2.30
2018-09-24T12:10:38.608Z,1.30
2018-09-24T12:13:12.675Z,1.60
2018-09-24T12:15:46.002Z,1.47
2018-09-24T12:18:19.162Z,1.40
2018-09-24T12:20:54.882Z,1.30
2018-09-24T12:23:28.553Z,0.87
2018-09-24T12:26:01.801Z,1.20
2018-09-24T12:28:35.118Z,0.80
2018-09-24T12:31:08.320Z,0.83
2018-09-24T12:33:41.882Z,1.40
2018-09-24T12:36:14.995Z,1.80
2018-09-24T12:38:48.176Z,1.47
2018-09-24T12:41:21.365Z,1.67
2018-09-24T12:43:54.657Z,2.67
2018-09-24T12:46:27.950Z,2.33
2018-09-24T12:49:01.102Z,1.47
2018-09-24T12:51:34.392Z,1.97
2018-09-24T12:54:07.378Z,3.97
2018-09-24T12:56:40.876Z,1.30
2018-09-24T12:59:14.179Z,1.23
2018-09-24T13:01:47.474Z,1.23
2018-09-24T13:04:20.641Z,1.33
2018-09-24T13:06:53.973Z,1.53
2018-09-24T13:09:27.259Z,1.40
2018-09-24T13:12:00.678Z,1.10
2018-09-24T13:14:33.882Z,1.20
2018-09-24T13:17:07.027Z,1.57
2018-09-24T13:19:40.198Z,1.13
2018-09-24T13:22:13.887Z,1.00
2018-09-24T13:24:47.133Z,1.57
2018-09-24T13:27:20.370Z,0.90
2018-09-24T13:29:53.545Z,1.47
2018-09-24T13:32:27.104Z,1.40
2018-09-24T13:35:00.202Z,1.40
2018-09-24T13:37:33.390Z,1.40
2018-09-24T13:40:06.808Z,1.50
2018-09-24T13:42:39.926Z,1.57
2018-09-24T13:45:13.034Z,1.10
2018-09-24T13:47:46.571Z,1.60
2018-09-24T13:50:19.891Z,1.10
2018-09-24T13:52:53.182Z,1.67
2018-09-24T13:55:26.445Z,1.33
2018-09-24T13:58:00.318Z,1.30
2018-09-24T14:00:33.576Z,2.17
2018-09-24T14:03:06.752Z,1.13
2018-09-24T14:05:39.694Z,1.10
2018-09-24T14:08:12.907Z,1.27
2018-09-24T14:10:46.110Z,1.93
2018-09-24T14:13:19.350Z,2.03
2018-09-24T14:15:52.615Z,2.07
2018-09-24T14:18:25.822Z,2.87
2018-09-24T14:20:58.968Z,1.83
2018-09-24T14:23:32.212Z,2.50
2018-09-24T14:26:05.389Z,1.37
2018-09-24T14:28:38.592Z,1.30
2018-09-24T14:31:11.712Z,1.17
2018-09-24T14:33:44.863Z,1.30
2018-09-24T14:36:18.040Z,0.90
2018-09-24T14:38:51.285Z,1.50
2018-09-24T14:41:24.535Z,2.10
2018-09-24T14:43:57.675Z,2.23
2018-09-24T14:46:30.729Z,1.30
2018-09-24T14:49:03.950Z,0.83
2018-09-24T14:51:37.268Z,1.37
2018-09-24T14:54:10.544Z,0.83
2018-09-24T14:56:43.632Z,0.90
2018-09-24T14:59:18.379Z,1.80
2018-09-24T15:01:52.022Z,1.70
2018-09-24T15:04:25.560Z,2.13
2018-09-24T15:06:59.441Z,2.97
2018-09-24T15:09:32.877Z,2.80
2018-09-24T15:12:05.980Z,2.90
2018-09-24T15:14:39.211Z,1.60
2018-09-24T15:17:12.383Z,1.67
2018-09-24T15:19:45.706Z,1.83
2018-09-24T15:22:18.860Z,2.30
2018-09-24T15:24:52.398Z,3.90
2018-09-24T15:27:25.930Z,2.57
2018-09-24T15:29:59.165Z,2.90
2018-09-24T15:32:32.752Z,2.57
2018-09-24T15:35:06.138Z,3.30
2018-09-24T15:37:39.372Z,2.17
2018-09-24T15:40:12.442Z,2.10
2018-09-24T15:42:45.656Z,2.77
2018-09-24T15:45:18.794Z,1.87
2018-09-24T15:47:52.689Z,3.33
2018-09-24T15:50:27.254Z,4.40
2018-09-24T15:53:00.627Z,2.60
2018-09-24T15:55:33.712Z,2.73
2018-09-24T15:58:09.018Z,1.90
2018-09-24T16:00:42.182Z,2.87
2018-09-24T16:03:16.152Z,2.90
2018-09-24T16:05:49.339Z,3.43
2018-09-24T16:08:24.422Z,2.70
2018-09-24T16:10:57.583Z,2.27
2018-09-24T16:13:30.839Z,3.70
2018-09-24T16:16:04.124Z,1.80
2018-09-24T16:18:37.229Z,1.60
2018-09-24T16:21:11.058Z,2.83
2018-09-24T16:23:44.118Z,2.20
2018-09-24T16:26:19.963Z,2.23
2018-09-24T16:28:53.260Z,1.83
2018-09-24T16:31:27.925Z,2.80
2018-09-24T16:34:01.600Z,1.83
2018-09-24T16:36:34.772Z,2.90
2018-09-24T16:39:08.045Z,1.87
2018-09-24T16:41:41.213Z,1.73
2018-09-24T16:44:14.356Z,2.30
2018-09-24T16:46:47.773Z,1.43
2018-09-24T16:49:21.759Z,2.63
2018-09-24T16:53:19.577Z,1.83
2018-09-24T16:55:52.886Z,1.53
2018-09-24T16:58:26.775Z,1.50
2018-09-24T17:01:00.105Z,2.33
2018-09-24T17:03:33.445Z,2.40
2018-09-24T17:06:06.598Z,2.67
2018-09-24T17:08:39.923Z,2.30
2018-09-24T17:11:13.028Z,1.93
2018-09-24T17:13:46.225Z,2.60
2018-09-24T17:16:19.343Z,1.27
2018-09-24T17:18:52.592Z,1.70
2018-09-24T17:21:25.858Z,2.00
2018-09-24T17:23:59.081Z,2.10
2018-09-24T17:26:32.271Z,1.37
2018-09-24T17:29:05.540Z,1.70
2018-09-24T17:31:39.422Z,1.87
2018-09-24T17:34:12.454Z,1.30
2018-09-24T17:36:45.572Z,1.37
2018-09-24T17:39:18.942Z,1.27
2018-09-24T17:41:52.160Z,2.93
2018-09-24T17:44:25.392Z,1.73
2018-09-24T17:46:58.644Z,1.50
2018-09-24T17:49:32.198Z,1.70
2018-09-24T17:52:05.312Z,1.70
2018-09-24T17:54:38.300Z,1.77
2018-09-24T17:57:11.761Z,1.53
2018-09-24T17:59:45.103Z,1.23
2018-09-24T18:02:18.093Z,1.50
2018-09-24T18:04:51.381Z,1.40
2018-09-24T18:07:24.515Z,1.97
2018-09-24T18:09:57.683Z,1.50
2018-09-24T18:12:30.872Z,1.63
2018-09-24T18:15:04.104Z,2.13
2018-09-24T18:17:37.301Z,2.00
2018-09-24T18:20:10.650Z,1.37
2018-09-24T18:22:43.812Z,2.33
2018-09-24T18:25:17.537Z,1.97
2018-09-24T18:27:50.743Z,1.33
2018-09-24T18:30:24.147Z,1.53
2018-09-24T18:32:57.635Z,1.23
2018-09-24T18:35:30.690Z,1.23
2018-09-24T18:38:04.094Z,4.23
2018-09-24T18:40:37.421Z,6.40
2018-09-24T18:43:10.629Z,4.17
2018-09-24T18:45:43.895Z,3.20
2018-09-24T18:48:17.805Z,3.53
2018-09-24T18:50:51.633Z,2.60
2018-09-24T18:53:25.015Z,2.40
2018-09-24T18:55:58.373Z,2.00
2018-09-24T18:58:31.545Z,2.20
2018-09-24T19:01:05.025Z,1.60
2018-09-24T19:03:38.244Z,2.90
2018-09-24T19:06:12.324Z,1.70
2018-09-24T19:08:45.587Z,2.80
2018-09-24T19:11:27.703Z,2.13
2018-09-24T19:13:52.370Z,2.00
2018-09-24T19:16:25.845Z,1.97
2018-09-24T19:18:59.185Z,1.83
2018-09-24T19:21:32.560Z,1.30
2018-09-24T19:24:05.841Z,2.37
2018-09-24T19:26:39.133Z,1.67
2018-09-24T19:29:12.229Z,1.17
2018-09-24T19:31:45.518Z,1.73
2018-09-24T19:34:19.560Z,2.00
2018-09-24T19:36:53.232Z,1.90
2018-09-24T19:39:26.413Z,2.00
2018-09-24T19:41:59.489Z,1.80
2018-09-24T19:44:32.907Z,2.33
2018-09-24T19:47:06.081Z,1.47
2018-09-24T19:49:39.630Z,1.97
2018-09-24T19:52:12.910Z,1.73
2018-09-24T19:54:46.654Z,1.70
2018-09-24T19:57:20.179Z,1.57
2018-09-24T19:59:53.631Z,2.03
2018-09-24T20:02:26.884Z,1.90
2018-09-24T20:05:01.385Z,2.77
2018-09-24T20:07:34.500Z,1.60
2018-09-24T20:23:07.339Z,2.23
2018-09-24T20:25:40.484Z,2.67
2018-09-24T20:28:13.649Z,2.33
2018-09-24T20:30:46.787Z,2.27
2018-09-24T20:33:19.955Z,1.83
2018-09-24T20:35:53.066Z,1.83
2018-09-24T20:38:26.341Z,2.77
2018-09-24T20:40:59.487Z,2.60
2018-09-24T20:43:32.629Z,2.57
2018-09-24T20:46:05.816Z,1.30
2018-09-24T20:48:39.112Z,3.30
2018-09-24T20:51:12.337Z,1.70
2018-09-24T20:53:45.671Z,1.63
2018-09-24T20:56:19.066Z,1.90
2018-09-24T20:58:52.284Z,1.60
2018-09-24T21:14:30.010Z,2.17
2018-09-24T21:17:03.276Z,2.40
2018-09-24T21:19:36.725Z,2.27
2018-09-24T21:22:09.809Z,1.93
2018-09-24T21:24:42.882Z,1.57
2018-09-24T21:27:16.025Z,1.53
2018-09-24T21:29:49.218Z,2.20
2018-09-24T21:32:22.503Z,1.70
2018-09-24T21:34:55.848Z,1.83
2018-09-24T21:37:29.071Z,1.73
2018-09-24T21:40:02.349Z,2.10
2018-09-24T21:42:35.565Z,2.00
2018-09-24T21:45:08.761Z,1.73
2018-09-24T21:47:41.979Z,1.60
2018-09-24T21:50:15.206Z,2.07
2018-09-24T21:52:48.367Z,2.13
2018-09-24T21:55:21.544Z,3.00
2018-09-24T21:57:54.583Z,3.00
2018-09-24T22:00:27.795Z,4.00
2018-09-24T22:03:01.486Z,3.27
2018-09-24T22:05:35.447Z,2.40
2018-09-24T22:08:08.808Z,2.30
2018-09-24T22:10:41.945Z,2.00
2018-09-24T22:13:15.065Z,2.07
2018-09-24T22:15:48.213Z,2.13
2018-09-24T22:18:21.581Z,1.60
2018-09-24T22:20:54.730Z,2.53
2018-09-24T22:23:27.920Z,2.70
2018-09-24T22:26:01.257Z,2.50
2018-09-24T22:28:34.543Z,2.70
2018-09-24T22:31:07.632Z,2.10
2018-09-24T22:33:40.688Z,2.03
2018-09-24T22:36:13.971Z,2.63
2018-09-24T22:38:47.164Z,3.40
2018-09-24T22:41:20.292Z,2.00
2018-09-24T22:43:53.440Z,2.33
2018-09-24T22:46:27.248Z,1.70
2018-09-24T22:49:00.433Z,1.60
2018-09-24T22:51:34.797Z,1.73
2018-09-24T22:54:07.891Z,2.20
2018-09-24T22:56:41.104Z,2.47
2018-09-24T22:59:14.327Z,2.13
2018-09-24T23:01:47.313Z,2.40
2018-09-24T23:04:20.617Z,2.50
2018-09-24T23:06:53.856Z,2.23
2018-09-24T23:09:27.126Z,1.57
2018-09-24T23:12:00.463Z,1.80
2018-09-24T23:14:33.672Z,2.17
2018-09-24T23:17:06.909Z,2.27
2018-09-24T23:21:04.481Z,2.33
2018-09-24T23:23:37.700Z,3.13
2018-09-24T23:26:11.421Z,2.00
2018-09-24T23:28:44.596Z,2.50
2018-09-24T23:31:17.667Z,2.00
2018-09-24T23:33:50.867Z,1.50
2018-09-24T23:36:24.005Z,2.33
2018-09-24T23:38:57.112Z,2.30
2018-09-24T23:41:30.132Z,1.67
2018-09-24T23:44:03.551Z,2.10
2018-09-24T23:46:36.808Z,1.90
2018-09-24T23:49:10.118Z,1.93
2018-09-24T23:51:43.439Z,1.90
2018-09-24T23:54:16.599Z,2.03
2018-09-24T23:56:49.711Z,2.13
2018-09-24T23:59:22.821Z,2.97
